createdAt,value
2022-10-17T00:00:39.314Z,14.84
2022-10-17T00:01:39.270Z,14.84
2022-10-17T00:02:39.161Z,14.83
2022-10-17T00:03:39.077Z,14.81
2022-10-17T00:04:39.017Z,14.83
2022-10-17T00:05:38.947Z,14.80
2022-10-17T00:06:38.926Z,14.83
2022-10-17T00:07:38.842Z,14.81
2022-10-17T00:08:38.794Z,14.83
2022-10-17T00:09:38.712Z,14.81
2022-10-17T00:10:38.650Z,14.81
2022-10-17T00:11:38.591Z,14.80
2022-10-17T00:12:38.518Z,14.78
2022-10-17T00:13:38.446Z,14.80
2022-10-17T00:14:38.397Z,14.78
2022-10-17T00:15:38.331Z,14.80
2022-10-17T00:16:38.258Z,14.78
2022-10-17T00:17:38.198Z,14.75
2022-10-17T00:18:38.147Z,14.77
2022-10-17T00:19:38.065Z,14.73
2022-10-17T00:20:37.996Z,14.73
2022-10-17T00:21:37.936Z,14.72
2022-10-17T00:22:37.901Z,14.70
2022-10-17T00:23:37.841Z,14.70
2022-10-17T00:24:37.781Z,14.70
2022-10-17T00:25:37.699Z,14.69
2022-10-17T00:26:37.628Z,14.68
2022-10-17T00:27:37.572Z,14.64
2022-10-17T00:28:37.533Z,14.64
2022-10-17T00:29:37.446Z,14.64
2022-10-17T00:30:37.393Z,14.61
2022-10-17T00:31:37.304Z,14.60
2022-10-17T00:32:37.242Z,14.60
2022-10-17T00:33:37.187Z,14.58
2022-10-17T00:34:37.115Z,14.58
2022-10-17T00:35:37.047Z,14.55
2022-10-17T00:36:37.279Z,14.58
2022-10-17T00:37:36.919Z,14.57
2022-10-17T00:38:36.877Z,14.55
2022-10-17T00:39:36.806Z,14.54
2022-10-17T00:40:36.733Z,14.52
2022-10-17T00:41:36.668Z,14.52
2022-10-17T00:42:36.621Z,14.51
2022-10-17T00:43:36.537Z,14.51
2022-10-17T00:44:36.479Z,14.47
2022-10-17T00:45:36.427Z,14.46
2022-10-17T00:46:36.361Z,14.45
2022-10-17T00:47:36.281Z,14.43
2022-10-17T00:48:36.265Z,14.45
2022-10-17T00:49:36.175Z,14.45
2022-10-17T00:50:36.111Z,14.45
2022-10-17T00:51:36.034Z,14.40
2022-10-17T00:52:35.973Z,14.42
2022-10-17T00:53:35.926Z,14.40
2022-10-17T00:54:35.895Z,14.40
2022-10-17T00:55:35.790Z,14.40
2022-10-17T00:56:35.721Z,14.39
2022-10-17T00:57:35.656Z,14.37
2022-10-17T00:58:35.589Z,14.36
2022-10-17T00:59:35.537Z,14.36
2022-10-17T01:00:35.474Z,14.39
2022-10-17T01:01:35.436Z,14.37
2022-10-17T01:02:35.352Z,14.39
2022-10-17T01:03:35.281Z,14.39
2022-10-17T01:04:35.228Z,14.39
2022-10-17T01:05:35.150Z,14.39
2022-10-17T01:07:45.338Z,14.40
2022-10-17T01:08:46.249Z,14.40
2022-10-17T01:09:46.171Z,14.40
2022-10-17T01:10:46.103Z,14.39
2022-10-17T01:11:46.060Z,14.40
2022-10-17T01:12:46.014Z,14.39
2022-10-17T01:13:45.934Z,14.40
2022-10-17T01:14:45.851Z,14.40
2022-10-17T01:15:45.811Z,14.39
2022-10-17T01:16:45.749Z,14.39
2022-10-17T01:17:45.668Z,14.39
2022-10-17T01:18:45.618Z,14.37
2022-10-17T01:19:45.548Z,14.39
2022-10-17T01:20:45.492Z,14.36
2022-10-17T01:21:45.432Z,14.36
2022-10-17T01:22:45.366Z,14.35
2022-10-17T01:23:45.291Z,14.33
2022-10-17T01:26:53.919Z,14.33
2022-10-17T01:27:54.846Z,14.28
2022-10-17T01:28:54.784Z,14.27
2022-10-17T01:29:54.715Z,14.24
2022-10-17T01:30:54.663Z,14.22
2022-10-17T01:31:54.594Z,14.24
2022-10-17T01:32:54.513Z,14.22
2022-10-17T01:33:54.482Z,14.21
2022-10-17T01:34:54.404Z,14.21
2022-10-17T01:35:54.328Z,14.21
2022-10-17T01:36:54.305Z,14.18
2022-10-17T01:37:54.216Z,14.18
2022-10-17T01:38:54.141Z,14.17
2022-10-17T01:39:54.068Z,14.15
2022-10-17T01:40:54.019Z,14.14
2022-10-17T01:41:53.959Z,14.10
2022-10-17T01:42:53.893Z,14.10
2022-10-17T01:43:53.827Z,14.07
2022-10-17T01:44:53.748Z,14.06
2022-10-17T01:45:53.704Z,14.04
2022-10-17T01:46:53.678Z,14.04
2022-10-17T01:47:53.562Z,14.04
2022-10-17T01:48:53.514Z,14.02
2022-10-17T01:49:53.439Z,14.00
2022-10-17T01:50:53.383Z,13.99
2022-10-17T01:51:53.321Z,13.97
2022-10-17T01:52:53.260Z,13.96
2022-10-17T01:53:53.194Z,13.92
2022-10-17T01:54:53.130Z,13.92
2022-10-17T01:55:53.109Z,13.91
2022-10-17T01:56:52.958Z,13.91
2022-10-17T01:57:52.930Z,13.85
2022-10-17T01:58:52.866Z,13.84
2022-10-17T01:59:52.803Z,13.82
2022-10-17T02:01:13.812Z,13.81
2022-10-17T02:01:52.712Z,13.79
2022-10-17T02:02:52.625Z,13.79
2022-10-17T02:03:52.558Z,13.79
2022-10-17T02:04:52.531Z,13.79
2022-10-17T02:05:52.441Z,13.79
2022-10-17T02:06:52.375Z,13.79
2022-10-17T02:07:52.307Z,13.79
2022-10-17T02:08:52.224Z,13.77
2022-10-17T02:09:52.173Z,13.77
2022-10-17T02:10:52.107Z,13.78
2022-10-17T02:11:52.053Z,13.77
2022-10-17T02:12:51.995Z,13.75
2022-10-17T02:13:51.905Z,13.75
2022-10-17T02:14:51.863Z,13.73
2022-10-17T02:15:51.785Z,13.75
2022-10-17T02:16:51.718Z,13.75
2022-10-17T02:17:51.666Z,13.73
2022-10-17T02:20:00.810Z,13.75
2022-10-17T02:21:01.764Z,13.75
2022-10-17T02:22:01.693Z,13.73
2022-10-17T02:23:01.614Z,13.75
2022-10-17T02:24:01.562Z,13.75
2022-10-17T02:25:01.525Z,13.73
2022-10-17T02:26:01.454Z,13.71
2022-10-17T02:27:01.371Z,13.69
2022-10-17T02:28:01.303Z,13.70
2022-10-17T02:29:01.309Z,13.69
2022-10-17T02:30:01.173Z,13.71
2022-10-17T02:31:01.143Z,13.71
2022-10-17T02:32:01.055Z,13.71
2022-10-17T02:33:01.008Z,13.70
2022-10-17T02:34:00.932Z,13.70
2022-10-17T02:35:00.855Z,13.69
2022-10-17T02:36:00.802Z,13.69
2022-10-17T02:37:21.737Z,13.67
2022-10-17T02:38:00.678Z,13.67
2022-10-17T02:39:00.603Z,13.66
2022-10-17T02:40:00.535Z,13.64
2022-10-17T02:41:00.469Z,13.63
2022-10-17T02:42:00.424Z,13.64
2022-10-17T02:43:00.365Z,13.63
2022-10-17T02:44:02.370Z,13.60
2022-10-17T02:45:00.215Z,13.60
2022-10-17T02:46:00.160Z,13.59
2022-10-17T02:47:00.108Z,13.57
2022-10-17T02:48:00.032Z,13.57
2022-10-17T02:49:00.011Z,13.57
2022-10-17T02:49:59.902Z,13.57
2022-10-17T02:50:59.845Z,13.57
2022-10-17T02:51:59.778Z,13.59
2022-10-17T02:52:59.725Z,13.59
2022-10-17T02:53:59.652Z,13.57
2022-10-17T02:54:59.592Z,13.59
2022-10-17T02:55:59.518Z,13.60
2022-10-17T02:56:59.457Z,13.57
2022-10-17T02:57:59.392Z,13.60
2022-10-17T02:58:59.327Z,13.59
2022-10-17T02:59:59.265Z,13.59
2022-10-17T03:00:59.275Z,13.60
2022-10-17T03:01:59.132Z,13.60
2022-10-17T03:02:59.083Z,13.59
2022-10-17T03:03:59.016Z,13.60
2022-10-17T03:04:58.942Z,13.60
2022-10-17T03:05:58.896Z,13.59
2022-10-17T03:06:58.833Z,13.60
2022-10-17T03:07:58.766Z,13.62
2022-10-17T03:08:58.707Z,13.62
2022-10-17T03:09:58.632Z,13.60
2022-10-17T03:10:58.580Z,13.60
2022-10-17T03:11:58.502Z,13.60
2022-10-17T03:13:19.421Z,13.59
2022-10-17T03:13:58.385Z,13.59
2022-10-17T03:14:58.321Z,13.59
2022-10-17T03:15:58.248Z,13.55
2022-10-17T03:16:58.186Z,13.55
2022-10-17T03:17:58.117Z,13.57
2022-10-17T03:18:58.064Z,13.55
2022-10-17T03:19:58.026Z,13.55
2022-10-17T03:20:57.928Z,13.57
2022-10-17T03:21:57.875Z,13.55
2022-10-17T03:22:57.814Z,13.52
2022-10-17T03:23:57.739Z,13.55
2022-10-17T03:24:57.693Z,13.54
2022-10-17T03:25:57.637Z,13.52
2022-10-17T03:26:57.560Z,13.49
2022-10-17T03:27:57.513Z,13.48
2022-10-17T03:28:57.465Z,13.46
2022-10-17T03:29:57.362Z,13.48
2022-10-17T03:30:57.309Z,13.46
2022-10-17T03:31:57.262Z,13.45
2022-10-17T03:32:57.178Z,13.46
2022-10-17T03:33:57.113Z,13.45
2022-10-17T03:34:57.044Z,13.42
2022-10-17T03:35:56.974Z,13.45
2022-10-17T03:36:56.938Z,13.45
2022-10-17T03:37:56.846Z,13.44
2022-10-17T03:38:56.807Z,13.44
2022-10-17T03:39:56.736Z,13.45
2022-10-17T03:40:56.677Z,13.44
2022-10-17T03:41:56.602Z,13.45
2022-10-17T03:42:56.556Z,13.45
2022-10-17T03:43:56.463Z,13.46
2022-10-17T03:44:56.398Z,13.46
2022-10-17T03:45:56.371Z,13.48
2022-10-17T03:46:56.280Z,13.48
2022-10-17T03:47:56.211Z,13.52
2022-10-17T03:48:56.152Z,13.52
2022-10-17T03:49:56.081Z,13.54
2022-10-17T03:50:56.036Z,13.55
2022-10-17T03:51:55.977Z,13.57
2022-10-17T03:52:55.896Z,13.55
2022-10-17T03:53:55.828Z,13.57
2022-10-17T03:54:55.767Z,13.59
2022-10-17T03:55:55.707Z,13.59
2022-10-17T03:57:55.588Z,13.62
2022-10-17T03:58:55.517Z,13.63
2022-10-17T03:59:55.456Z,13.63
2022-10-17T04:00:55.409Z,13.66
2022-10-17T04:01:55.320Z,13.69
2022-10-17T04:02:55.269Z,13.69
2022-10-17T04:03:55.237Z,13.70
2022-10-17T04:04:55.127Z,13.73
2022-10-17T04:05:55.066Z,13.73
2022-10-17T04:06:55.011Z,13.77
2022-10-17T04:07:54.935Z,13.78
2022-10-17T04:08:54.875Z,13.81
2022-10-17T04:09:54.805Z,13.81
2022-10-17T04:10:54.765Z,13.82
2022-10-17T04:11:54.676Z,13.81
2022-10-17T04:12:54.636Z,13.82
2022-10-17T04:13:54.569Z,13.84
2022-10-17T04:14:54.496Z,13.88
2022-10-17T04:15:54.433Z,13.89
2022-10-17T04:16:54.375Z,13.89
2022-10-17T04:17:54.365Z,13.89
2022-10-17T04:18:54.249Z,13.89
2022-10-17T04:19:54.164Z,13.89
2022-10-17T04:20:54.116Z,13.91
2022-10-17T04:21:54.057Z,13.92
2022-10-17T04:22:53.997Z,13.92
2022-10-17T04:23:53.934Z,13.91
2022-10-17T04:24:53.865Z,13.92
2022-10-17T04:25:53.786Z,13.92
2022-10-17T04:26:53.748Z,13.91
2022-10-17T04:27:53.661Z,13.92
2022-10-17T04:28:53.599Z,13.92
2022-10-17T04:29:53.539Z,13.91
2022-10-17T04:30:54.191Z,13.91
2022-10-17T04:31:53.411Z,13.92
2022-10-17T04:32:53.349Z,13.92
2022-10-17T04:33:53.295Z,13.92
2022-10-17T04:34:53.230Z,13.92
2022-10-17T04:35:53.151Z,13.92
2022-10-17T04:36:53.122Z,13.92
2022-10-17T04:37:53.040Z,13.95
2022-10-17T04:38:52.973Z,13.96
2022-10-17T04:39:52.901Z,13.96
2022-10-17T04:40:52.839Z,13.99
2022-10-17T04:41:52.769Z,14.00
2022-10-17T04:43:13.701Z,14.02
2022-10-17T04:43:52.657Z,14.04
2022-10-17T04:44:52.618Z,14.07
2022-10-17T04:45:52.524Z,14.09
2022-10-17T04:46:52.461Z,14.10
2022-10-17T04:47:52.408Z,14.12
2022-10-17T04:48:52.354Z,14.10
2022-10-17T04:49:52.277Z,14.14
2022-10-17T04:50:52.215Z,14.15
2022-10-17T04:51:52.133Z,14.14
2022-10-17T04:52:52.081Z,14.15
2022-10-17T04:53:52.030Z,14.17
2022-10-17T04:54:51.957Z,14.17
2022-10-17T04:55:51.884Z,14.20
2022-10-17T04:56:51.820Z,14.20
2022-10-17T04:57:51.764Z,14.21
2022-10-17T04:58:51.708Z,14.21
2022-10-17T04:59:51.648Z,14.22
2022-10-17T05:01:12.632Z,14.25
2022-10-17T05:01:51.521Z,14.27
2022-10-17T05:02:51.450Z,14.25
2022-10-17T05:03:51.367Z,14.27
2022-10-17T05:04:51.309Z,14.28
2022-10-17T05:05:51.249Z,14.28
2022-10-17T05:06:51.208Z,14.29
2022-10-17T05:07:51.141Z,14.32
2022-10-17T05:08:51.077Z,14.33
2022-10-17T05:09:51.004Z,14.35
2022-10-17T05:10:50.967Z,14.37
2022-10-17T05:11:50.882Z,14.37
2022-10-17T05:12:50.862Z,14.37
2022-10-17T05:13:50.741Z,14.37
2022-10-17T05:14:50.623Z,14.39
2022-10-17T05:15:50.622Z,14.40
2022-10-17T05:16:50.546Z,14.42
2022-10-17T05:17:50.482Z,14.42
2022-10-17T05:18:52.830Z,14.43
2022-10-17T05:19:50.307Z,14.45
2022-10-17T05:20:50.240Z,14.45
2022-10-17T05:21:50.231Z,14.45
2022-10-17T05:22:50.170Z,14.46
2022-10-17T05:23:50.115Z,14.46
2022-10-17T05:24:50.026Z,14.47
2022-10-17T05:25:49.915Z,14.50
2022-10-17T05:26:49.889Z,14.45
2022-10-17T05:27:49.825Z,14.46
2022-10-17T05:28:49.858Z,14.47
2022-10-17T05:29:49.693Z,14.47
2022-10-17T05:30:49.617Z,14.47
2022-10-17T05:31:49.564Z,14.47
2022-10-17T05:32:49.536Z,14.47
2022-10-17T05:33:49.431Z,14.50
2022-10-17T05:34:49.367Z,14.51
2022-10-17T05:35:49.282Z,14.52
2022-10-17T05:38:28.090Z,14.62
2022-10-17T05:39:29.017Z,14.62
2022-10-17T05:40:28.933Z,14.62
2022-10-17T05:41:28.898Z,14.62
2022-10-17T05:42:29.263Z,14.64
2022-10-17T05:43:28.758Z,14.64
2022-10-17T05:44:28.684Z,14.65
2022-10-17T05:45:28.639Z,14.68
2022-10-17T05:46:28.582Z,14.68
2022-10-17T05:47:28.876Z,14.65
2022-10-17T05:48:28.711Z,14.65
2022-10-17T05:49:45.030Z,14.68
2022-10-17T05:50:28.324Z,14.68
2022-10-17T05:51:28.280Z,14.68
2022-10-17T05:52:28.502Z,14.69
2022-10-17T05:53:28.119Z,14.70
2022-10-17T05:54:28.089Z,14.72
2022-10-17T05:55:28.010Z,14.72
2022-10-17T05:56:28.422Z,14.73
2022-10-17T05:57:27.871Z,14.73
2022-10-17T05:59:27.767Z,14.75
2022-10-17T06:00:27.693Z,14.75
2022-10-17T06:01:27.624Z,14.75
2022-10-17T06:02:27.962Z,14.78
2022-10-17T06:03:27.531Z,14.78
2022-10-17T06:04:27.429Z,14.78
2022-10-17T06:05:27.361Z,14.80
2022-10-17T06:06:27.302Z,14.78
2022-10-17T06:07:27.237Z,14.78
2022-10-17T06:08:27.161Z,14.81
2022-10-17T06:09:27.117Z,14.81
2022-10-17T06:10:27.036Z,14.81
2022-10-17T06:11:26.974Z,14.83
2022-10-17T06:12:47.893Z,14.84
2022-10-17T06:13:26.862Z,14.84
2022-10-17T06:14:26.783Z,14.86
2022-10-17T06:15:26.720Z,14.88
2022-10-17T06:16:26.651Z,14.89
2022-10-17T06:17:26.597Z,14.91
2022-10-17T06:18:26.554Z,14.92
2022-10-17T06:19:26.466Z,14.92
2022-10-17T06:20:26.408Z,14.94
2022-10-17T06:21:26.356Z,14.95
2022-10-17T06:22:26.611Z,14.95
2022-10-17T06:23:26.239Z,14.96
2022-10-17T06:24:26.164Z,14.95
2022-10-17T06:25:26.103Z,14.95
2022-10-17T06:26:26.024Z,14.95
2022-10-17T06:27:25.970Z,14.92
2022-10-17T06:28:25.930Z,14.96
2022-10-17T06:29:25.862Z,14.96
2022-10-17T06:30:25.782Z,14.96
2022-10-17T06:31:25.720Z,14.99
2022-10-17T06:32:25.658Z,15.01
2022-10-17T06:33:25.588Z,15.02
2022-10-17T06:34:25.537Z,15.07
2022-10-17T06:35:25.449Z,15.10
2022-10-17T06:36:25.412Z,15.11
2022-10-17T06:37:25.338Z,15.11
2022-10-17T06:38:25.260Z,15.13
2022-10-17T06:39:25.215Z,15.13
2022-10-17T06:40:25.137Z,15.14
2022-10-17T06:41:25.070Z,15.16
2022-10-17T06:42:25.017Z,15.17
2022-10-17T06:43:27.998Z,15.20
2022-10-17T06:44:24.878Z,15.23
2022-10-17T06:45:24.845Z,15.28
2022-10-17T06:46:24.771Z,15.34
2022-10-17T06:47:24.693Z,15.36
2022-10-17T06:48:45.626Z,15.43
2022-10-17T06:49:24.565Z,15.51
2022-10-17T06:50:24.525Z,15.60
2022-10-17T06:51:24.482Z,15.71
2022-10-17T06:52:24.395Z,15.82
2022-10-17T06:53:24.306Z,15.87
2022-10-17T06:54:24.268Z,15.92
2022-10-17T06:55:24.204Z,15.94
2022-10-17T06:56:24.123Z,16.01
2022-10-17T06:57:24.070Z,16.09
2022-10-17T06:58:24.004Z,16.24
2022-10-17T06:59:23.939Z,16.38
2022-10-17T07:00:23.906Z,16.45
2022-10-17T07:01:23.818Z,16.48
2022-10-17T07:02:23.736Z,16.57
2022-10-17T07:03:23.677Z,16.68
2022-10-17T07:04:23.665Z,16.82
2022-10-17T07:05:23.556Z,16.86
2022-10-17T07:06:23.515Z,16.82
2022-10-17T07:07:23.422Z,16.79
2022-10-17T07:08:23.362Z,16.81
2022-10-17T07:09:23.298Z,16.86
2022-10-17T07:10:23.252Z,16.91
2022-10-17T07:11:23.184Z,16.98
2022-10-17T07:12:23.131Z,17.04
2022-10-17T07:13:23.064Z,17.08
2022-10-17T07:14:23.001Z,17.15
2022-10-17T07:15:22.917Z,17.23
2022-10-17T07:16:22.900Z,17.31
2022-10-17T07:17:22.793Z,17.36
2022-10-17T07:18:22.757Z,17.37
2022-10-17T07:19:22.676Z,17.48
2022-10-17T07:20:22.617Z,17.54
2022-10-17T07:21:22.542Z,17.62
2022-10-17T07:22:22.478Z,17.72
2022-10-17T07:23:22.431Z,17.89
2022-10-17T07:24:43.379Z,18.14
2022-10-17T07:25:22.313Z,18.48
2022-10-17T07:26:22.254Z,18.82
2022-10-17T07:27:22.176Z,19.16
2022-10-17T07:28:22.134Z,19.43
2022-10-17T07:29:22.047Z,19.56
2022-10-17T07:30:21.997Z,19.58
2022-10-17T07:31:21.903Z,19.58
2022-10-17T07:32:21.854Z,19.55
2022-10-17T07:33:21.800Z,19.62
2022-10-17T07:34:21.733Z,19.61
2022-10-17T07:35:21.661Z,19.55
2022-10-17T07:36:21.618Z,19.40
2022-10-17T07:37:21.561Z,19.23
2022-10-17T07:38:21.661Z,19.13
2022-10-17T07:39:21.407Z,18.99
2022-10-17T07:40:21.357Z,18.85
2022-10-17T07:41:21.939Z,18.75
2022-10-17T07:44:00.086Z,18.54
2022-10-17T07:45:00.989Z,18.48
2022-10-17T07:46:00.944Z,18.42
2022-10-17T07:47:00.867Z,18.36
2022-10-17T07:48:00.837Z,18.30
2022-10-17T07:49:00.753Z,18.27
2022-10-17T07:50:00.722Z,18.25
2022-10-17T07:51:00.635Z,18.25
2022-10-17T07:52:00.559Z,18.25
2022-10-17T07:53:00.513Z,18.20
2022-10-17T07:54:00.487Z,18.18
2022-10-17T07:55:00.378Z,18.17
2022-10-17T07:56:00.312Z,18.17
2022-10-17T07:57:00.266Z,18.14
2022-10-17T07:58:00.199Z,18.11
2022-10-17T07:59:02.634Z,18.08
2022-10-17T08:00:00.112Z,18.08
2022-10-17T08:01:00.085Z,18.02
2022-10-17T08:01:59.926Z,18.00
2022-10-17T08:02:59.871Z,17.97
2022-10-17T08:03:59.796Z,17.96
2022-10-17T08:04:59.733Z,17.96
2022-10-17T08:05:59.701Z,17.93
2022-10-17T08:07:11.311Z,17.93
2022-10-17T08:07:59.556Z,17.95
2022-10-17T08:08:59.487Z,17.93
2022-10-17T08:09:59.500Z,17.93
2022-10-17T08:10:59.364Z,17.93
2022-10-17T08:11:59.325Z,17.93
2022-10-17T08:12:59.240Z,17.93
2022-10-17T08:13:59.174Z,17.95
2022-10-17T08:14:59.136Z,17.95
2022-10-17T08:15:59.058Z,17.96
2022-10-17T08:16:58.999Z,17.96
2022-10-17T08:17:58.945Z,17.97
2022-10-17T08:18:58.964Z,18.00
2022-10-17T08:19:58.789Z,18.02
2022-10-17T08:21:00.216Z,18.05
2022-10-17T08:21:58.671Z,18.07
2022-10-17T08:22:58.601Z,18.11
2022-10-17T08:23:58.567Z,18.12
2022-10-17T08:24:58.492Z,18.15
2022-10-17T08:25:58.443Z,18.15
2022-10-17T08:26:58.382Z,18.15
2022-10-17T08:27:58.338Z,18.18
2022-10-17T08:28:58.306Z,18.21
2022-10-17T08:29:58.204Z,18.23
2022-10-17T08:30:58.152Z,18.26
2022-10-17T08:32:01.155Z,18.29
2022-10-17T08:32:57.980Z,18.35
2022-10-17T08:33:57.951Z,18.35
2022-10-17T08:34:57.855Z,18.37
2022-10-17T08:37:36.662Z,18.42
2022-10-17T08:38:40.344Z,18.47
2022-10-17T08:39:37.528Z,18.47
2022-10-17T08:40:37.461Z,18.48
2022-10-17T08:41:37.409Z,18.51
2022-10-17T08:42:37.341Z,18.55
2022-10-17T08:43:37.260Z,18.55
2022-10-17T08:44:37.224Z,18.57
2022-10-17T08:45:37.136Z,18.58
2022-10-17T08:46:37.085Z,18.60
2022-10-17T08:47:37.044Z,18.63
2022-10-17T08:48:36.965Z,18.62
2022-10-17T08:49:36.900Z,18.63
2022-10-17T08:50:36.824Z,18.66
2022-10-17T08:51:36.788Z,18.70
2022-10-17T08:52:36.701Z,18.75
2022-10-17T08:54:45.845Z,18.80
2022-10-17T08:55:46.768Z,18.80
2022-10-17T08:56:49.292Z,18.81
2022-10-17T08:57:46.647Z,18.82
2022-10-17T08:58:46.579Z,18.85
2022-10-17T08:59:46.543Z,18.91
2022-10-17T09:00:46.463Z,18.94
2022-10-17T09:01:46.397Z,19.00
2022-10-17T09:02:46.381Z,19.11
2022-10-17T09:03:46.273Z,19.19
2022-10-17T09:04:46.189Z,19.29
2022-10-17T09:05:46.171Z,19.37
2022-10-17T09:06:46.088Z,19.43
2022-10-17T09:07:46.001Z,19.46
2022-10-17T09:08:45.953Z,19.50
2022-10-17T09:09:45.876Z,19.55
2022-10-17T09:10:45.821Z,19.59
2022-10-17T09:11:45.815Z,19.62
2022-10-17T09:12:45.693Z,19.65
2022-10-17T09:13:45.636Z,19.68
2022-10-17T09:14:45.578Z,19.68
2022-10-17T09:15:45.526Z,19.69
2022-10-17T09:16:45.469Z,19.74
2022-10-17T09:17:45.412Z,19.77
2022-10-17T09:18:45.321Z,19.83
2022-10-17T09:19:45.263Z,19.86
2022-10-17T09:20:45.188Z,19.84
2022-10-17T09:21:45.838Z,19.88
2022-10-17T09:22:45.139Z,19.88
2022-10-17T09:23:45.299Z,19.91
2022-10-17T09:24:45.019Z,19.92
2022-10-17T09:25:44.921Z,19.96
2022-10-17T09:26:44.830Z,19.98
2022-10-17T09:27:44.749Z,20.01
2022-10-17T09:28:44.743Z,20.05
2022-10-17T09:30:07.270Z,20.10
2022-10-17T09:30:45.855Z,20.14
2022-10-17T09:31:44.558Z,20.20
2022-10-17T09:32:44.447Z,20.24
2022-10-17T09:33:59.978Z,20.32
2022-10-17T09:34:44.341Z,20.38
2022-10-17T09:35:44.377Z,20.43
2022-10-17T09:36:44.191Z,20.50
2022-10-17T09:37:44.143Z,20.54
2022-10-17T09:38:44.091Z,20.58
2022-10-17T09:39:44.021Z,20.66
2022-10-17T09:40:43.957Z,20.70
2022-10-17T09:41:46.063Z,20.77
2022-10-17T09:42:43.829Z,20.85
2022-10-17T09:43:43.766Z,20.91
2022-10-17T09:44:43.705Z,20.97
2022-10-17T09:45:43.652Z,21.04
2022-10-17T09:46:43.563Z,21.09
2022-10-17T09:47:43.581Z,21.12
2022-10-17T09:48:43.503Z,21.16
2022-10-17T09:49:43.378Z,21.22
2022-10-17T09:50:43.317Z,21.28
2022-10-17T09:51:43.267Z,21.29
2022-10-17T09:52:43.207Z,21.32
2022-10-17T09:53:43.253Z,21.34
2022-10-17T09:54:43.072Z,21.37
2022-10-17T09:55:43.023Z,21.38
2022-10-17T09:56:43.007Z,21.42
2022-10-17T09:57:42.873Z,21.46
2022-10-17T09:58:42.854Z,21.52
2022-10-17T09:59:42.813Z,21.54
2022-10-17T10:00:42.767Z,21.56
2022-10-17T10:01:42.650Z,21.56
2022-10-17T10:02:42.589Z,21.56
2022-10-17T10:03:42.510Z,21.54
2022-10-17T10:05:03.347Z,21.59
2022-10-17T10:05:42.409Z,21.61
2022-10-17T10:06:42.319Z,21.59
2022-10-17T10:07:42.272Z,21.61
2022-10-17T10:08:42.208Z,21.67
2022-10-17T10:09:42.142Z,21.75
2022-10-17T10:10:42.079Z,21.84
2022-10-17T10:11:42.020Z,21.96
2022-10-17T10:12:41.960Z,22.06
2022-10-17T10:13:41.904Z,22.22
2022-10-17T10:14:44.222Z,22.40
2022-10-17T10:15:41.786Z,22.54
2022-10-17T10:16:41.708Z,22.67
2022-10-17T10:17:41.656Z,22.73
2022-10-17T10:18:41.593Z,22.76
2022-10-17T10:19:41.529Z,22.75
2022-10-17T10:20:41.443Z,22.80
2022-10-17T10:21:44.001Z,22.88
2022-10-17T10:22:41.320Z,22.94
2022-10-17T10:24:02.311Z,23.04
2022-10-17T10:24:41.199Z,23.07
2022-10-17T10:25:41.160Z,23.01
2022-10-17T10:26:41.091Z,22.94
2022-10-17T10:27:41.129Z,22.90
2022-10-17T10:28:41.001Z,22.92
2022-10-17T10:29:40.971Z,23.00
2022-10-17T10:31:01.807Z,23.02
2022-10-17T10:31:40.786Z,23.00
2022-10-17T10:32:40.702Z,23.00
2022-10-17T10:33:41.765Z,23.01
2022-10-17T10:34:40.578Z,23.01
2022-10-17T10:35:40.538Z,23.04
2022-10-17T10:36:40.494Z,23.09
2022-10-17T10:37:40.609Z,23.17
2022-10-17T10:38:40.490Z,23.28
2022-10-17T10:39:40.276Z,23.35
2022-10-17T10:40:40.216Z,23.43
2022-10-17T10:42:01.132Z,23.47
2022-10-17T10:42:40.093Z,23.47
2022-10-17T10:43:40.026Z,23.46
2022-10-17T10:44:39.969Z,23.38
2022-10-17T10:45:48.013Z,23.28
2022-10-17T10:46:39.845Z,23.27
2022-10-17T10:47:39.800Z,23.23
2022-10-17T10:48:39.716Z,23.17
2022-10-17T10:49:39.656Z,23.23
2022-10-17T10:50:44.367Z,23.27
2022-10-17T10:51:39.542Z,23.38
2022-10-17T10:52:39.470Z,23.40
2022-10-17T10:53:39.428Z,23.43
2022-10-17T10:55:39.302Z,23.58
2022-10-17T10:56:39.223Z,23.61
2022-10-17T10:57:39.165Z,23.66
2022-10-17T10:58:42.151Z,23.66
2022-10-17T11:00:00.031Z,23.60
2022-10-17T11:00:39.203Z,23.57
2022-10-17T11:01:38.926Z,23.57
2022-10-17T11:02:38.856Z,23.58
2022-10-17T11:03:38.798Z,23.60
2022-10-17T11:04:38.727Z,23.66
2022-10-17T11:05:38.691Z,23.70
2022-10-17T11:06:38.617Z,23.68
2022-10-17T11:07:38.552Z,23.66
2022-10-17T11:08:38.486Z,23.68
2022-10-17T11:09:38.422Z,23.72
2022-10-17T11:10:38.364Z,23.75
2022-10-17T11:11:38.319Z,23.80
2022-10-17T11:12:38.283Z,23.85
2022-10-17T11:13:38.179Z,23.94
2022-10-17T11:14:38.119Z,24.03
2022-10-17T11:15:38.053Z,24.12
2022-10-17T11:16:37.988Z,24.20
2022-10-17T11:17:58.912Z,24.22
2022-10-17T11:18:37.880Z,24.20
2022-10-17T11:19:37.804Z,24.20
2022-10-17T11:20:37.747Z,24.20
2022-10-17T11:21:37.702Z,24.16
2022-10-17T11:22:37.622Z,24.12
2022-10-17T11:23:37.588Z,24.13
2022-10-17T11:24:37.497Z,24.10
2022-10-17T11:25:37.443Z,24.08
2022-10-17T11:26:37.371Z,24.02
2022-10-17T11:27:37.319Z,23.93
2022-10-17T11:28:37.286Z,23.90
2022-10-17T11:29:37.214Z,23.87
2022-10-17T11:30:37.152Z,23.78
2022-10-17T11:31:37.063Z,23.75
2022-10-17T11:32:37.032Z,23.63
2022-10-17T11:33:36.944Z,23.55
2022-10-17T11:34:36.894Z,23.47
2022-10-17T11:37:16.681Z,23.36
2022-10-17T11:38:17.605Z,23.32
2022-10-17T11:39:17.543Z,23.31
2022-10-17T11:40:20.391Z,23.27
2022-10-17T11:41:17.446Z,23.22
2022-10-17T11:42:17.370Z,23.13
2022-10-17T11:43:17.308Z,23.07
2022-10-17T11:44:17.239Z,23.00
2022-10-17T11:45:17.184Z,22.95
2022-10-17T11:46:17.118Z,22.94
2022-10-17T11:47:17.075Z,22.91
2022-10-17T11:48:16.990Z,22.92
2022-10-17T11:49:20.429Z,22.95
2022-10-17T11:52:26.991Z,23.25
2022-10-17T11:53:37.670Z,23.38
2022-10-17T11:54:16.623Z,23.48
2022-10-17T11:55:16.589Z,23.60
2022-10-17T11:56:16.571Z,23.69
2022-10-17T11:57:16.434Z,23.79
2022-10-17T11:58:16.468Z,23.84
2022-10-17T11:59:16.318Z,23.87
2022-10-17T12:00:16.260Z,23.85
2022-10-17T12:01:16.199Z,23.90
2022-10-17T12:02:16.127Z,23.94
2022-10-17T12:03:16.078Z,23.91
2022-10-17T12:04:16.032Z,23.97
2022-10-17T12:05:15.978Z,23.98
2022-10-17T12:06:15.887Z,23.97
2022-10-17T12:07:15.819Z,23.98
2022-10-17T12:08:15.761Z,23.98
2022-10-17T12:09:15.699Z,23.95
2022-10-17T12:10:15.634Z,23.90
2022-10-17T12:11:15.586Z,23.88
2022-10-17T12:12:15.512Z,23.83
2022-10-17T12:13:15.451Z,23.76
2022-10-17T12:14:15.398Z,23.72
2022-10-17T12:15:15.323Z,23.70
2022-10-17T12:16:17.518Z,23.68
2022-10-17T12:17:15.221Z,23.69
2022-10-17T12:18:15.144Z,23.68
2022-10-17T12:19:15.079Z,23.68
2022-10-17T12:20:15.023Z,23.69
2022-10-17T12:21:14.961Z,23.69
2022-10-17T12:22:14.900Z,23.70
2022-10-17T12:23:14.859Z,23.75
2022-10-17T12:24:18.813Z,23.79
2022-10-17T12:25:14.713Z,23.85
2022-10-17T12:26:14.648Z,23.88
2022-10-17T12:27:14.590Z,23.93
2022-10-17T12:28:14.679Z,23.91
2022-10-17T12:30:53.327Z,23.95
2022-10-17T12:31:54.249Z,23.94
2022-10-17T12:33:05.775Z,23.90
2022-10-17T12:33:54.160Z,23.88
2022-10-17T12:34:54.063Z,23.87
2022-10-17T12:35:54.008Z,23.85
2022-10-17T12:36:53.944Z,23.85
2022-10-17T12:37:57.415Z,23.83
2022-10-17T12:38:53.824Z,23.78
2022-10-17T12:39:53.752Z,23.75
2022-10-17T12:40:53.692Z,23.73
2022-10-17T12:41:53.645Z,23.75
2022-10-17T12:42:53.571Z,23.75
2022-10-17T12:43:53.518Z,23.75
2022-10-17T12:44:53.450Z,23.75
2022-10-17T12:45:53.382Z,23.76
2022-10-17T12:46:53.323Z,23.76
2022-10-17T12:47:53.278Z,23.73
2022-10-17T12:48:53.200Z,23.76
2022-10-17T12:49:56.571Z,23.78
2022-10-17T12:50:53.079Z,23.76
2022-10-17T12:51:53.019Z,23.78
2022-10-17T12:52:52.963Z,23.80
2022-10-17T12:53:52.919Z,23.79
2022-10-17T12:55:07.145Z,23.79
2022-10-17T12:55:52.770Z,23.80
2022-10-17T12:56:52.710Z,23.80
2022-10-17T12:57:52.646Z,23.83
2022-10-17T12:58:52.576Z,23.83
2022-10-17T12:59:55.603Z,23.83
2022-10-17T13:01:11.622Z,23.83
2022-10-17T13:01:52.445Z,23.83
2022-10-17T13:02:52.337Z,23.83
2022-10-17T13:03:52.279Z,23.83
2022-10-17T13:04:53.624Z,23.80
2022-10-17T13:06:13.133Z,23.83
2022-10-17T13:06:52.083Z,23.84
2022-10-17T13:07:52.028Z,23.83
2022-10-17T13:08:54.933Z,23.83
2022-10-17T13:09:51.908Z,23.78
2022-10-17T13:10:52.751Z,23.76